RYS1GL LGKR-EPKT
Flight info
| Callsign | RYS1GL |
|---|---|
| Flight time | N/A |
| Altitude | 36000 |
| Route | NIKRO M127 OVVER DCT ALELU DCT RISTU DCT PARAK DCT LITKU DCT REDSI DCT MEBAN |
| Aircraft | B738/M-SDE2E3FGHIRWXY/LB1 |
Departure
| Time | 2026-05-06 16:51 |
|---|---|
| Airport | Corfu Ioannis Kapodistrias International Airport (LGKR) |
Arrival
| Time | N/A |
|---|---|
| Airport | Katowice Wojciech Korfanty International Airport (EPKT) |
| Time | Latitude | Longitude | Altitude | Speed | Heading |
|---|---|---|---|---|---|
| 2026-05-06 16:23 | 39.60696 | 19.91365 | 7 ft | 0 kts | 79° |
| 2026-05-06 16:38 | 39.60694 | 19.91347 | 9 ft | 3 kts | 79° |
| 2026-05-06 16:38 | 39.60690 | 19.91321 | 9 ft | 3 kts | 79° |
| 2026-05-06 16:38 | 39.60687 | 19.91295 | 7 ft | 3 kts | 79° |
| 2026-05-06 16:38 | 39.60684 | 19.91268 | 9 ft | 3 kts | 79° |
| 2026-05-06 16:39 | 39.60681 | 19.91247 | 8 ft | 3 kts | 95° |
| 2026-05-06 16:39 | 39.60686 | 19.91227 | 10 ft | 3 kts | 146° |
| 2026-05-06 16:39 | 39.60704 | 19.91218 | 6 ft | 2 kts | 168° |
| 2026-05-06 16:39 | 39.60724 | 19.91213 | 9 ft | 3 kts | 169° |
| 2026-05-06 16:40 | 39.60732 | 19.91211 | 7 ft | 1 kts | 170° |
| 2026-05-06 16:41 | 39.60727 | 19.91212 | 8 ft | 3 kts | 169° |
| 2026-05-06 16:42 | 39.60683 | 19.91222 | 8 ft | 9 kts | 171° |
| 2026-05-06 16:42 | 39.60617 | 19.91212 | 6 ft | 9 kts | 197° |
| 2026-05-06 16:42 | 39.60600 | 19.91204 | 6 ft | 0 kts | 200° |
| 2026-05-06 16:42 | 39.60596 | 19.91203 | 6 ft | 1 kts | 199° |
| 2026-05-06 16:43 | 39.60595 | 19.91202 | 6 ft | 0 kts | 199° |
| 2026-05-06 16:44 | 39.60593 | 19.91201 | 6 ft | 0 kts | 200° |
| 2026-05-06 16:47 | 39.60589 | 19.91200 | 6 ft | 3 kts | 201° |
| 2026-05-06 16:48 | 39.60524 | 19.91153 | 5 ft | 17 kts | 204° |
| 2026-05-06 16:48 | 39.60370 | 19.91168 | 5 ft | 28 kts | 169° |
| 2026-05-06 16:48 | 39.60174 | 19.91220 | 7 ft | 28 kts | 169° |
| 2026-05-06 16:48 | 39.59989 | 19.91267 | 7 ft | 26 kts | 168° |
| 2026-05-06 16:49 | 39.59815 | 19.91310 | 7 ft | 25 kts | 168° |
| 2026-05-06 16:49 | 39.59653 | 19.91355 | 5 ft | 23 kts | 168° |
| 2026-05-06 16:49 | 39.59483 | 19.91400 | 4 ft | 28 kts | 168° |
| 2026-05-06 16:49 | 39.59293 | 19.91448 | 5 ft | 27 kts | 169° |
| 2026-05-06 16:50 | 39.59178 | 19.91458 | 6 ft | 6 kts | 115° |
| 2026-05-06 16:50 | 39.59199 | 19.91472 | 4 ft | 7 kts | 356° |
| 2026-05-06 16:50 | 39.59334 | 19.91438 | 5 ft | 49 kts | 348° |
| 2026-05-06 16:50 | 39.59913 | 19.91288 | 8 ft | 119 kts | 348° |
| 2026-05-06 16:51 | 39.60927 | 19.91024 | 22 ft | 175 kts | 347° |
| 2026-05-06 16:51 | 39.62123 | 19.90710 | 767 ft | 174 kts | 348° |
| 2026-05-06 16:51 | 39.63300 | 19.90400 | 1675 ft | 170 kts | 347° |
| 2026-05-06 16:51 | 39.64474 | 19.90107 | 2361 ft | 183 kts | 348° |
| 2026-05-06 16:52 | 39.65804 | 19.89751 | 3005 ft | 198 kts | 347° |
| 2026-05-06 16:52 | 39.67219 | 19.89557 | 3575 ft | 216 kts | 4° |
| 2026-05-06 16:52 | 39.68771 | 19.89863 | 3927 ft | 238 kts | 8° |
| 2026-05-06 16:52 | 39.70489 | 19.90180 | 4237 ft | 264 kts | 7° |
| 2026-05-06 16:53 | 39.72348 | 19.90486 | 4994 ft | 272 kts | 6° |
| 2026-05-06 16:53 | 39.74219 | 19.90774 | 5920 ft | 274 kts | 6° |
| 2026-05-06 16:53 | 39.76122 | 19.91052 | 6830 ft | 276 kts | 6° |
| 2026-05-06 16:53 | 39.78013 | 19.91320 | 7678 ft | 278 kts | 5° |
| 2026-05-06 16:54 | 39.79952 | 19.91587 | 8545 ft | 281 kts | 5° |
| 2026-05-06 16:54 | 39.81902 | 19.91851 | 9395 ft | 284 kts | 5° |
| 2026-05-06 16:54 | 39.83883 | 19.92114 | 10215 ft | 288 kts | 4° |
| 2026-05-06 16:54 | 39.85939 | 19.92384 | 10636 ft | 307 kts | 4° |
| 2026-05-06 16:55 | 39.88149 | 19.92669 | 10870 ft | 330 kts | 4° |
| 2026-05-06 16:55 | 39.90476 | 19.92971 | 11459 ft | 339 kts | 4° |
| 2026-05-06 16:55 | 39.92824 | 19.93277 | 12247 ft | 342 kts | 5° |
| 2026-05-06 16:55 | 39.95209 | 19.93588 | 13065 ft | 344 kts | 5° |
| 2026-05-06 16:56 | 39.97599 | 19.93900 | 13858 ft | 348 kts | 4° |
| 2026-05-06 16:56 | 40.00018 | 19.94216 | 14556 ft | 351 kts | 4° |
| 2026-05-06 16:56 | 40.02458 | 19.94533 | 15286 ft | 353 kts | 4° |
| 2026-05-06 16:56 | 40.04922 | 19.94852 | 15976 ft | 357 kts | 3° |
| 2026-05-06 16:57 | 40.07394 | 19.95171 | 16650 ft | 360 kts | 2° |
| 2026-05-06 16:57 | 40.09898 | 19.95497 | 17299 ft | 362 kts | 2° |
| 2026-05-06 16:57 | 40.12417 | 19.95824 | 17962 ft | 364 kts | 2° |
| 2026-05-06 16:57 | 40.14946 | 19.96153 | 18613 ft | 368 kts | 1° |
| 2026-05-06 16:58 | 40.17502 | 19.96485 | 19192 ft | 371 kts | 2° |
| 2026-05-06 16:58 | 40.20088 | 19.96821 | 19821 ft | 373 kts | 1° |
| 2026-05-06 16:58 | 40.22680 | 19.97161 | 20453 ft | 375 kts | 1° |
| 2026-05-06 16:58 | 40.25295 | 19.97503 | 21033 ft | 378 kts | 1° |
| 2026-05-06 16:59 | 40.27922 | 19.97848 | 21579 ft | 381 kts | 1° |
| 2026-05-06 16:59 | 40.30559 | 19.98193 | 22159 ft | 383 kts | 1° |
| 2026-05-06 16:59 | 40.33220 | 19.98542 | 22722 ft | 385 kts | 1° |
| 2026-05-06 16:59 | 40.35895 | 19.98894 | 23212 ft | 389 kts | 1° |
| 2026-05-06 17:00 | 40.38599 | 19.99247 | 23746 ft | 391 kts | 1° |
| 2026-05-06 17:00 | 40.41313 | 19.99602 | 24214 ft | 393 kts | 1° |
| 2026-05-06 17:00 | 40.44040 | 19.99961 | 24686 ft | 395 kts | 1° |
| 2026-05-06 17:00 | 40.46778 | 20.00321 | 25137 ft | 397 kts | 1° |
| 2026-05-06 17:01 | 40.49535 | 20.00684 | 25612 ft | 397 kts | 0° |
| 2026-05-06 17:01 | 40.52273 | 20.01046 | 26220 ft | 396 kts | 0° |
| 2026-05-06 17:01 | 40.55030 | 20.01284 | 26462 ft | 399 kts | 353° |
| 2026-05-06 17:01 | 40.57773 | 20.01116 | 26816 ft | 400 kts | 351° |
| 2026-05-06 17:02 | 40.60592 | 20.00874 | 27279 ft | 401 kts | 351° |
| 2026-05-06 17:02 | 40.63379 | 20.00620 | 27706 ft | 402 kts | 351° |
| 2026-05-06 17:02 | 40.66177 | 20.00366 | 28100 ft | 404 kts | 350° |
| 2026-05-06 17:02 | 40.68990 | 20.00118 | 28474 ft | 406 kts | 350° |
| 2026-05-06 17:03 | 40.71816 | 19.99874 | 28855 ft | 408 kts | 351° |
| 2026-05-06 17:03 | 40.74620 | 19.99638 | 29237 ft | 409 kts | 351° |
| 2026-05-06 17:03 | 40.77464 | 19.99402 | 29625 ft | 411 kts | 351° |
| 2026-05-06 17:03 | 40.80359 | 19.99164 | 30006 ft | 412 kts | 351° |
| 2026-05-06 17:04 | 40.83230 | 19.98929 | 30312 ft | 414 kts | 351° |
| 2026-05-06 17:04 | 40.86071 | 19.98696 | 30625 ft | 414 kts | 351° |
| 2026-05-06 17:04 | 40.88947 | 19.98462 | 31038 ft | 413 kts | 350° |
| 2026-05-06 17:04 | 40.91845 | 19.98227 | 31491 ft | 411 kts | 350° |
| 2026-05-06 17:05 | 40.94651 | 19.97998 | 31873 ft | 410 kts | 350° |
| 2026-05-06 17:05 | 40.97498 | 19.97764 | 32189 ft | 410 kts | 350° |
| 2026-05-06 17:05 | 41.00350 | 19.97529 | 32522 ft | 410 kts | 349° |
| 2026-05-06 17:05 | 41.03229 | 19.97292 | 32915 ft | 408 kts | 349° |
| 2026-05-06 17:06 | 41.06014 | 19.97063 | 33307 ft | 407 kts | 349° |
| 2026-05-06 17:06 | 41.08837 | 19.96831 | 33647 ft | 406 kts | 349° |
| 2026-05-06 17:06 | 41.11656 | 19.96598 | 33976 ft | 406 kts | 349° |
| 2026-05-06 17:06 | 41.14475 | 19.96365 | 34286 ft | 405 kts | 349° |
| 2026-05-06 17:07 | 41.17286 | 19.96133 | 34604 ft | 404 kts | 349° |
| 2026-05-06 17:07 | 41.20088 | 19.95901 | 34839 ft | 405 kts | 349° |
| 2026-05-06 17:07 | 41.22897 | 19.95667 | 35086 ft | 405 kts | 349° |
| 2026-05-06 17:07 | 41.25710 | 19.95434 | 35401 ft | 403 kts | 349° |
| 2026-05-06 17:08 | 41.28511 | 19.95201 | 35653 ft | 404 kts | 350° |
| 2026-05-06 17:08 | 41.31318 | 19.94969 | 35888 ft | 404 kts | 350° |
| 2026-05-06 17:08 | 41.34125 | 19.94735 | 36080 ft | 406 kts | 350° |
| 2026-05-06 17:09 | 41.39772 | 19.94263 | 36071 ft | 407 kts | 350° |
| 2026-05-06 17:09 | 41.45405 | 19.93794 | 36083 ft | 404 kts | 350° |
| 2026-05-06 17:10 | 41.50999 | 19.93329 | 36095 ft | 402 kts | 350° |
| 2026-05-06 17:10 | 41.56587 | 19.92861 | 36060 ft | 402 kts | 350° |
| 2026-05-06 17:11 | 41.62163 | 19.92393 | 36077 ft | 401 kts | 350° |
| 2026-05-06 17:11 | 41.67735 | 19.91924 | 36068 ft | 402 kts | 350° |
| 2026-05-06 17:12 | 41.73326 | 19.91452 | 36082 ft | 404 kts | 350° |
| 2026-05-06 17:12 | 41.78951 | 19.90977 | 36060 ft | 407 kts | 351° |
| 2026-05-06 17:13 | 41.84630 | 19.90498 | 36085 ft | 410 kts | 351° |
| 2026-05-06 17:13 | 41.90300 | 19.90018 | 36069 ft | 412 kts | 351° |
| 2026-05-06 17:14 | 41.96044 | 19.89532 | 36073 ft | 415 kts | 351° |
| 2026-05-06 17:14 | 42.01806 | 19.89044 | 36060 ft | 416 kts | 351° |
| 2026-05-06 17:15 | 42.07587 | 19.88553 | 36072 ft | 416 kts | 351° |
| 2026-05-06 17:15 | 42.13360 | 19.88061 | 36082 ft | 415 kts | 351° |
| 2026-05-06 17:16 | 42.19113 | 19.87572 | 36068 ft | 414 kts | 351° |
| 2026-05-06 17:16 | 42.24848 | 19.87081 | 36066 ft | 412 kts | 351° |
| 2026-05-06 17:17 | 42.30560 | 19.86592 | 36077 ft | 412 kts | 351° |
| 2026-05-06 17:17 | 42.36297 | 19.86099 | 36083 ft | 412 kts | 351° |
| 2026-05-06 17:18 | 42.42022 | 19.85606 | 36062 ft | 413 kts | 351° |
| 2026-05-06 17:18 | 42.47767 | 19.85125 | 36069 ft | 415 kts | 353° |
| 2026-05-06 17:19 | 42.53576 | 19.85424 | 36065 ft | 420 kts | 358° |
| 2026-05-06 17:19 | 42.59423 | 19.85912 | 36055 ft | 421 kts | 358° |
| 2026-05-06 17:20 | 42.65280 | 19.86385 | 36012 ft | 421 kts | 358° |
| 2026-05-06 17:20 | 42.71108 | 19.86843 | 36057 ft | 420 kts | 358° |
| 2026-05-06 17:21 | 42.76964 | 19.87287 | 36037 ft | 423 kts | 358° |
| 2026-05-06 17:21 | 42.82847 | 19.87730 | 36048 ft | 424 kts | 359° |
| 2026-05-06 17:22 | 42.88718 | 19.88174 | 36024 ft | 426 kts | 359° |
| 2026-05-06 17:22 | 42.94623 | 19.88625 | 36029 ft | 425 kts | 359° |
| 2026-05-06 17:23 | 43.00535 | 19.89074 | 36025 ft | 426 kts | 359° |
| 2026-05-06 17:23 | 43.06464 | 19.89525 | 36025 ft | 427 kts | 359° |
| 2026-05-06 17:24 | 43.12381 | 19.89978 | 36015 ft | 426 kts | 359° |
| 2026-05-06 17:24 | 43.18319 | 19.90432 | 36007 ft | 427 kts | 359° |
| 2026-05-06 17:25 | 43.24242 | 19.90885 | 35940 ft | 427 kts | 359° |
| 2026-05-06 17:25 | 43.30204 | 19.91340 | 36001 ft | 433 kts | 359° |
| 2026-05-06 17:26 | 43.36256 | 19.91804 | 35997 ft | 437 kts | 359° |
| 2026-05-06 17:26 | 43.42346 | 19.92275 | 35988 ft | 439 kts | 359° |
| 2026-05-06 17:27 | 43.48451 | 19.92749 | 35989 ft | 439 kts | 359° |
| 2026-05-06 17:27 | 43.54563 | 19.93223 | 35981 ft | 440 kts | 359° |
| 2026-05-06 17:28 | 43.60664 | 19.93697 | 35953 ft | 439 kts | 359° |
| 2026-05-06 17:28 | 43.66769 | 19.94172 | 35948 ft | 438 kts | 359° |
| 2026-05-06 17:29 | 43.72855 | 19.94646 | 35960 ft | 438 kts | 359° |
| 2026-05-06 17:29 | 43.78929 | 19.95120 | 35940 ft | 437 kts | 359° |
| 2026-05-06 17:30 | 43.85003 | 19.95596 | 35944 ft | 436 kts | 359° |
| 2026-05-06 17:30 | 43.90036 | 19.95990 | 35952 ft | 436 kts | 359° |
| 2026-05-06 17:31 | 43.96083 | 19.96465 | 35942 ft | 435 kts | 359° |
| 2026-05-06 17:31 | 44.03110 | 19.97018 | 35933 ft | 435 kts | 359° |
| 2026-05-06 17:32 | 44.09154 | 19.97494 | 35935 ft | 436 kts | 359° |
| 2026-05-06 17:32 | 44.14231 | 19.97895 | 35924 ft | 436 kts | 359° |
| 2026-05-06 17:33 | 44.20296 | 19.98375 | 35929 ft | 437 kts | 359° |
| 2026-05-06 17:33 | 44.26377 | 19.98857 | 35921 ft | 438 kts | 359° |
| 2026-05-06 17:34 | 44.32463 | 19.99341 | 35913 ft | 439 kts | 359° |
| 2026-05-06 17:34 | 44.38569 | 19.99827 | 35913 ft | 440 kts | 359° |
| 2026-05-06 17:35 | 44.44675 | 20.00315 | 35907 ft | 441 kts | 359° |
| 2026-05-06 17:35 | 44.50772 | 20.00802 | 35904 ft | 441 kts | 359° |
| 2026-05-06 17:36 | 44.59987 | 20.01542 | 35901 ft | 443 kts | 359° |
| 2026-05-06 17:36 | 44.66132 | 20.02036 | 35906 ft | 443 kts | 359° |
| 2026-05-06 17:37 | 44.72286 | 20.02532 | 35899 ft | 443 kts | 359° |
| 2026-05-06 17:37 | 44.78447 | 20.02989 | 35906 ft | 443 kts | 358° |
| 2026-05-06 17:38 | 44.84602 | 20.03266 | 35912 ft | 442 kts | 357° |
| 2026-05-06 17:38 | 44.90761 | 20.03513 | 35910 ft | 442 kts | 358° |
| 2026-05-06 17:39 | 44.96901 | 20.03779 | 35908 ft | 442 kts | 358° |
| 2026-05-06 17:39 | 45.03049 | 20.04059 | 35912 ft | 442 kts | 358° |
| 2026-05-06 17:40 | 45.09196 | 20.04344 | 35910 ft | 441 kts | 358° |
| 2026-05-06 17:40 | 45.15334 | 20.04629 | 35910 ft | 441 kts | 358° |
| 2026-05-06 17:41 | 45.21469 | 20.04914 | 35910 ft | 441 kts | 358° |
| 2026-05-06 17:41 | 45.27590 | 20.05198 | 35908 ft | 441 kts | 358° |
| 2026-05-06 17:42 | 45.33732 | 20.05485 | 35907 ft | 441 kts | 358° |
| 2026-05-06 17:42 | 45.39852 | 20.05771 | 35907 ft | 441 kts | 358° |
| 2026-05-06 17:43 | 45.45988 | 20.06058 | 35908 ft | 441 kts | 358° |
| 2026-05-06 17:43 | 45.52112 | 20.06345 | 35902 ft | 441 kts | 358° |
| 2026-05-06 17:44 | 45.58247 | 20.06633 | 35908 ft | 441 kts | 358° |
| 2026-05-06 17:44 | 45.64377 | 20.06922 | 35910 ft | 441 kts | 358° |
| 2026-05-06 17:45 | 45.70509 | 20.07212 | 35910 ft | 441 kts | 358° |
| 2026-05-06 17:45 | 45.76647 | 20.07502 | 35899 ft | 441 kts | 358° |
| 2026-05-06 17:46 | 45.82786 | 20.07794 | 35901 ft | 442 kts | 358° |
| 2026-05-06 17:46 | 45.88932 | 20.08086 | 35909 ft | 442 kts | 358° |
| 2026-05-06 17:47 | 45.95071 | 20.08378 | 35912 ft | 442 kts | 358° |
| 2026-05-06 17:47 | 46.01179 | 20.08670 | 35910 ft | 442 kts | 358° |
| 2026-05-06 17:48 | 46.07334 | 20.08965 | 35907 ft | 443 kts | 358° |
| 2026-05-06 17:48 | 46.13496 | 20.09260 | 35908 ft | 443 kts | 358° |
| 2026-05-06 17:49 | 46.19591 | 20.08856 | 35912 ft | 436 kts | 347° |
| 2026-05-06 17:49 | 46.25569 | 20.07436 | 35906 ft | 435 kts | 346° |
| 2026-05-06 17:50 | 46.31535 | 20.05958 | 35905 ft | 435 kts | 346° |
| 2026-05-06 17:50 | 46.37521 | 20.04526 | 35904 ft | 435 kts | 346° |
| 2026-05-06 17:51 | 46.43499 | 20.03127 | 35900 ft | 435 kts | 346° |
| 2026-05-06 17:51 | 46.49472 | 20.01738 | 35902 ft | 435 kts | 346° |
| 2026-05-06 17:52 | 46.55446 | 20.00345 | 35904 ft | 435 kts | 346° |
| 2026-05-06 17:52 | 46.61426 | 19.98948 | 35904 ft | 435 kts | 346° |
| 2026-05-06 17:53 | 46.67390 | 19.97550 | 35907 ft | 434 kts | 346° |
| 2026-05-06 17:53 | 46.73346 | 19.96151 | 35909 ft | 434 kts | 346° |
| 2026-05-06 17:54 | 46.79318 | 19.94744 | 35906 ft | 434 kts | 346° |
| 2026-05-06 17:54 | 46.85279 | 19.93338 | 35910 ft | 434 kts | 346° |
| 2026-05-06 17:55 | 46.91250 | 19.91925 | 35911 ft | 434 kts | 346° |
| 2026-05-06 17:55 | 46.97218 | 19.90511 | 35915 ft | 434 kts | 346° |
| 2026-05-06 17:56 | 47.03180 | 19.89094 | 35911 ft | 434 kts | 346° |
| 2026-05-06 17:56 | 47.09147 | 19.87673 | 35902 ft | 435 kts | 346° |
| 2026-05-06 17:57 | 47.15115 | 19.86249 | 35901 ft | 435 kts | 346° |
| 2026-05-06 17:57 | 47.21088 | 19.84820 | 35885 ft | 435 kts | 346° |
| 2026-05-06 17:58 | 47.27012 | 19.83400 | 35883 ft | 435 kts | 346° |
| 2026-05-06 17:58 | 47.32995 | 19.81962 | 35880 ft | 435 kts | 346° |
| 2026-05-06 17:59 | 47.38965 | 19.80524 | 35880 ft | 435 kts | 346° |
| 2026-05-06 17:59 | 47.44952 | 19.79079 | 35882 ft | 435 kts | 346° |
| 2026-05-06 18:00 | 47.50934 | 19.77631 | 35881 ft | 436 kts | 346° |
| 2026-05-06 18:00 | 47.56914 | 19.76181 | 35885 ft | 436 kts | 346° |
| 2026-05-06 18:01 | 47.62909 | 19.74725 | 35886 ft | 436 kts | 346° |
| 2026-05-06 18:01 | 47.68901 | 19.73262 | 35880 ft | 436 kts | 346° |